sensor_id;sensor_type;location;lat;lon;timestamp;P1;durP1;ratioP1;P2;durP2;ratioP2
61590;SDS011;71994;52.410;-1.966;2024-03-06T00:01:06;7.70;;;4.05;;
61590;SDS011;71994;52.410;-1.966;2024-03-06T00:04:15;7.18;;;4.30;;
61590;SDS011;71994;52.410;-1.966;2024-03-06T00:07:24;7.65;;;4.30;;
61590;SDS011;71994;52.410;-1.966;2024-03-06T00:10:32;5.82;;;3.95;;
61590;SDS011;71994;52.410;-1.966;2024-03-06T00:13:38;5.90;;;4.05;;
61590;SDS011;71994;52.410;-1.966;2024-03-06T00:16:45;6.90;;;4.20;;
61590;SDS011;71994;52.410;-1.966;2024-03-06T00:19:52;5.63;;;4.00;;
61590;SDS011;71994;52.410;-1.966;2024-03-06T00:23:03;6.28;;;3.85;;
61590;SDS011;71994;52.410;-1.966;2024-03-06T00:26:09;7.07;;;4.75;;
61590;SDS011;71994;52.410;-1.966;2024-03-06T00:29:18;7.50;;;4.37;;
61590;SDS011;71994;52.410;-1.966;2024-03-06T00:32:25;5.05;;;4.05;;
61590;SDS011;71994;52.410;-1.966;2024-03-06T00:35:31;7.00;;;4.70;;
61590;SDS011;71994;52.410;-1.966;2024-03-06T00:38:40;5.65;;;4.32;;
61590;SDS011;71994;52.410;-1.966;2024-03-06T00:41:46;6.15;;;4.20;;
61590;SDS011;71994;52.410;-1.966;2024-03-06T00:44:53;7.47;;;4.45;;
61590;SDS011;71994;52.410;-1.966;2024-03-06T00:47:59;6.93;;;4.47;;
61590;SDS011;71994;52.410;-1.966;2024-03-06T00:51:06;7.03;;;4.35;;
61590;SDS011;71994;52.410;-1.966;2024-03-06T00:54:15;7.13;;;4.57;;
61590;SDS011;71994;52.410;-1.966;2024-03-06T00:57:21;7.47;;;4.35;;
61590;SDS011;71994;52.410;-1.966;2024-03-06T01:00:32;6.65;;;4.53;;
61590;SDS011;71994;52.410;-1.966;2024-03-06T01:03:39;6.03;;;4.05;;
61590;SDS011;71994;52.410;-1.966;2024-03-06T01:06:45;6.40;;;4.28;;
61590;SDS011;71994;52.410;-1.966;2024-03-06T01:10:00;7.45;;;4.45;;
61590;SDS011;71994;52.410;-1.966;2024-03-06T01:13:06;7.30;;;4.25;;
61590;SDS011;71994;52.410;-1.966;2024-03-06T01:16:13;6.30;;;4.10;;
61590;SDS011;71994;52.410;-1.966;2024-03-06T01:19:19;6.68;;;4.55;;
61590;SDS011;71994;52.410;-1.966;2024-03-06T01:22:26;8.93;;;4.50;;
61590;SDS011;71994;52.410;-1.966;2024-03-06T01:25:35;6.15;;;4.15;;
61590;SDS011;71994;52.410;-1.966;2024-03-06T01:28:41;6.23;;;4.40;;
61590;SDS011;71994;52.410;-1.966;2024-03-06T01:31:50;6.80;;;4.30;;
61590;SDS011;71994;52.410;-1.966;2024-03-06T01:34:57;5.28;;;3.97;;
61590;SDS011;71994;52.410;-1.966;2024-03-06T01:38:03;8.02;;;4.70;;
61590;SDS011;71994;52.410;-1.966;2024-03-06T01:41:14;8.80;;;4.53;;
61590;SDS011;71994;52.410;-1.966;2024-03-06T01:44:21;6.90;;;4.13;;
61590;SDS011;71994;52.410;-1.966;2024-03-06T01:47:27;7.25;;;4.65;;
61590;SDS011;71994;52.410;-1.966;2024-03-06T01:50:33;7.20;;;4.43;;
61590;SDS011;71994;52.410;-1.966;2024-03-06T01:53:43;5.93;;;4.60;;
61590;SDS011;71994;52.410;-1.966;2024-03-06T01:56:52;7.60;;;4.78;;
61590;SDS011;71994;52.410;-1.966;2024-03-06T02:00:05;7.75;;;4.55;;
61590;SDS011;71994;52.410;-1.966;2024-03-06T02:03:16;7.15;;;4.75;;
61590;SDS011;71994;52.410;-1.966;2024-03-06T02:06:25;7.03;;;4.93;;
61590;SDS011;71994;52.410;-1.966;2024-03-06T02:09:31;7.65;;;4.57;;
61590;SDS011;71994;52.410;-1.966;2024-03-06T02:12:41;7.05;;;4.65;;
61590;SDS011;71994;52.410;-1.966;2024-03-06T02:15:48;7.22;;;4.85;;
61590;SDS011;71994;52.410;-1.966;2024-03-06T02:18:54;5.75;;;4.45;;
61590;SDS011;71994;52.410;-1.966;2024-03-06T02:22:05;5.70;;;4.22;;
61590;SDS011;71994;52.410;-1.966;2024-03-06T02:25:11;6.33;;;4.80;;
61590;SDS011;71994;52.410;-1.966;2024-03-06T02:28:18;6.32;;;4.55;;
61590;SDS011;71994;52.410;-1.966;2024-03-06T02:31:24;6.40;;;4.55;;
61590;SDS011;71994;52.410;-1.966;2024-03-06T02:34:31;6.10;;;4.25;;
61590;SDS011;71994;52.410;-1.966;2024-03-06T02:37:46;6.32;;;4.28;;
61590;SDS011;71994;52.410;-1.966;2024-03-06T02:40:52;6.40;;;4.70;;
61590;SDS011;71994;52.410;-1.966;2024-03-06T02:43:58;6.47;;;4.43;;
61590;SDS011;71994;52.410;-1.966;2024-03-06T02:47:05;7.03;;;4.60;;
61590;SDS011;71994;52.410;-1.966;2024-03-06T02:50:14;7.25;;;4.20;;
61590;SDS011;71994;52.410;-1.966;2024-03-06T02:53:23;6.07;;;4.45;;
61590;SDS011;71994;52.410;-1.966;2024-03-06T02:56:30;6.40;;;4.22;;
61590;SDS011;71994;52.410;-1.966;2024-03-06T02:59:42;6.75;;;4.40;;
61590;SDS011;71994;52.410;-1.966;2024-03-06T03:02:48;6.70;;;4.22;;
61590;SDS011;71994;52.410;-1.966;2024-03-06T03:05:55;6.60;;;4.22;;
61590;SDS011;71994;52.410;-1.966;2024-03-06T03:09:04;6.85;;;4.60;;
61590;SDS011;71994;52.410;-1.966;2024-03-06T03:12:14;6.65;;;4.70;;
61590;SDS011;71994;52.410;-1.966;2024-03-06T03:15:21;7.28;;;4.40;;
61590;SDS011;71994;52.410;-1.966;2024-03-06T03:18:27;6.70;;;4.32;;
61590;SDS011;71994;52.410;-1.966;2024-03-06T03:21:34;6.05;;;4.38;;
61590;SDS011;71994;52.410;-1.966;2024-03-06T03:24:44;6.85;;;4.18;;
61590;SDS011;71994;52.410;-1.966;2024-03-06T03:27:51;6.15;;;4.32;;
61590;SDS011;71994;52.410;-1.966;2024-03-06T03:30:57;5.20;;;3.90;;
61590;SDS011;71994;52.410;-1.966;2024-03-06T03:34:04;6.70;;;4.70;;
61590;SDS011;71994;52.410;-1.966;2024-03-06T03:37:16;6.88;;;4.57;;
61590;SDS011;71994;52.410;-1.966;2024-03-06T03:40:27;6.32;;;4.40;;
61590;SDS011;71994;52.410;-1.966;2024-03-06T03:43:35;6.05;;;4.28;;
61590;SDS011;71994;52.410;-1.966;2024-03-06T03:46:41;6.93;;;4.28;;
61590;SDS011;71994;52.410;-1.966;2024-03-06T03:49:48;7.85;;;4.68;;
61590;SDS011;71994;52.410;-1.966;2024-03-06T03:52:59;6.13;;;4.50;;
61590;SDS011;71994;52.410;-1.966;2024-03-06T03:56:09;7.05;;;4.15;;
61590;SDS011;71994;52.410;-1.966;2024-03-06T03:59:18;6.43;;;4.07;;
61590;SDS011;71994;52.410;-1.966;2024-03-06T04:02:26;5.68;;;3.90;;
61590;SDS011;71994;52.410;-1.966;2024-03-06T04:05:33;5.07;;;4.15;;
61590;SDS011;71994;52.410;-1.966;2024-03-06T04:08:39;6.75;;;4.18;;
61590;SDS011;71994;52.410;-1.966;2024-03-06T04:11:49;6.07;;;4.28;;
61590;SDS011;71994;52.410;-1.966;2024-03-06T04:14:55;7.40;;;4.53;;
61590;SDS011;71994;52.410;-1.966;2024-03-06T04:18:03;7.43;;;4.47;;
61590;SDS011;71994;52.410;-1.966;2024-03-06T04:21:10;6.85;;;4.38;;
61590;SDS011;71994;52.410;-1.966;2024-03-06T04:24:17;7.00;;;4.50;;
61590;SDS011;71994;52.410;-1.966;2024-03-06T04:27:26;8.02;;;4.65;;
61590;SDS011;71994;52.410;-1.966;2024-03-06T04:30:33;6.47;;;4.55;;
61590;SDS011;71994;52.410;-1.966;2024-03-06T04:33:40;5.97;;;4.57;;
61590;SDS011;71994;52.410;-1.966;2024-03-06T04:36:47;8.07;;;4.85;;
61590;SDS011;71994;52.410;-1.966;2024-03-06T04:39:56;7.53;;;4.63;;
61590;SDS011;71994;52.410;-1.966;2024-03-06T04:43:06;7.68;;;5.10;;
61590;SDS011;71994;52.410;-1.966;2024-03-06T04:46:12;6.63;;;4.53;;
61590;SDS011;71994;52.410;-1.966;2024-03-06T04:49:19;7.22;;;4.88;;
61590;SDS011;71994;52.410;-1.966;2024-03-06T04:52:26;6.82;;;5.05;;
61590;SDS011;71994;52.410;-1.966;2024-03-06T04:55:34;7.55;;;5.18;;
61590;SDS011;71994;52.410;-1.966;2024-03-06T04:58:46;6.80;;;4.60;;
61590;SDS011;71994;52.410;-1.966;2024-03-06T05:01:57;7.18;;;4.95;;
61590;SDS011;71994;52.410;-1.966;2024-03-06T05:05:06;8.65;;;5.10;;
61590;SDS011;71994;52.410;-1.966;2024-03-06T05:08:16;7.35;;;5.00;;
61590;SDS011;71994;52.410;-1.966;2024-03-06T05:11:23;8.35;;;5.25;;
61590;SDS011;71994;52.410;-1.966;2024-03-06T05:14:32;7.90;;;4.90;;
61590;SDS011;71994;52.410;-1.966;2024-03-06T05:17:39;6.88;;;4.68;;
61590;SDS011;71994;52.410;-1.966;2024-03-06T05:20:46;7.25;;;5.03;;
61590;SDS011;71994;52.410;-1.966;2024-03-06T05:23:52;6.65;;;4.40;;
61590;SDS011;71994;52.410;-1.966;2024-03-06T05:26:59;6.40;;;4.70;;
61590;SDS011;71994;52.410;-1.966;2024-03-06T05:30:08;6.88;;;4.93;;
61590;SDS011;71994;52.410;-1.966;2024-03-06T05:36:27;6.80;;;4.75;;
61590;SDS011;71994;52.410;-1.966;2024-03-06T05:39:34;6.50;;;4.53;;
61590;SDS011;71994;52.410;-1.966;2024-03-06T05:42:43;6.85;;;4.78;;
61590;SDS011;71994;52.410;-1.966;2024-03-06T05:45:52;6.72;;;4.68;;
61590;SDS011;71994;52.410;-1.966;2024-03-06T05:49:00;5.78;;;4.60;;
61590;SDS011;71994;52.410;-1.966;2024-03-06T05:52:07;5.60;;;4.40;;
61590;SDS011;71994;52.410;-1.966;2024-03-06T05:55:13;6.18;;;4.60;;
61590;SDS011;71994;52.410;-1.966;2024-03-06T05:58:20;6.32;;;4.65;;
61590;SDS011;71994;52.410;-1.966;2024-03-06T06:01:29;5.30;;;4.25;;
61590;SDS011;71994;52.410;-1.966;2024-03-06T06:04:38;6.57;;;4.63;;
61590;SDS011;71994;52.410;-1.966;2024-03-06T06:07:45;6.68;;;4.40;;
61590;SDS011;71994;52.410;-1.966;2024-03-06T06:10:51;5.75;;;4.40;;
61590;SDS011;71994;52.410;-1.966;2024-03-06T06:13:58;5.32;;;4.22;;
61590;SDS011;71994;52.410;-1.966;2024-03-06T06:17:07;6.13;;;4.45;;
61590;SDS011;71994;52.410;-1.966;2024-03-06T06:20:16;5.85;;;4.25;;
61590;SDS011;71994;52.410;-1.966;2024-03-06T06:23:24;5.68;;;3.92;;
61590;SDS011;71994;52.410;-1.966;2024-03-06T06:26:31;4.85;;;3.78;;
61590;SDS011;71994;52.410;-1.966;2024-03-06T06:29:38;5.57;;;3.78;;
61590;SDS011;71994;52.410;-1.966;2024-03-06T06:32:49;5.18;;;4.05;;
61590;SDS011;71994;52.410;-1.966;2024-03-06T06:35:55;4.37;;;3.70;;
61590;SDS011;71994;52.410;-1.966;2024-03-06T06:39:02;5.70;;;3.97;;
61590;SDS011;71994;52.410;-1.966;2024-03-06T06:42:08;5.63;;;4.15;;
61590;SDS011;71994;52.410;-1.966;2024-03-06T06:45:16;5.43;;;3.83;;
61590;SDS011;71994;52.410;-1.966;2024-03-06T06:48:25;5.05;;;3.60;;
61590;SDS011;71994;52.410;-1.966;2024-03-06T06:51:31;5.20;;;3.90;;
61590;SDS011;71994;52.410;-1.966;2024-03-06T06:54:38;5.05;;;3.78;;
61590;SDS011;71994;52.410;-1.966;2024-03-06T06:57:46;5.70;;;4.07;;
61590;SDS011;71994;52.410;-1.966;2024-03-06T07:00:53;4.35;;;3.47;;
61590;SDS011;71994;52.410;-1.966;2024-03-06T07:04:03;5.20;;;3.60;;
61590;SDS011;71994;52.410;-1.966;2024-03-06T07:07:09;5.00;;;3.53;;
61590;SDS011;71994;52.410;-1.966;2024-03-06T07:10:16;5.53;;;3.97;;
61590;SDS011;71994;52.410;-1.966;2024-03-06T07:13:23;4.55;;;3.53;;
61590;SDS011;71994;52.410;-1.966;2024-03-06T07:16:32;4.57;;;3.35;;
61590;SDS011;71994;52.410;-1.966;2024-03-06T07:20:01;4.60;;;3.45;;
61590;SDS011;71994;52.410;-1.966;2024-03-06T07:23:07;4.80;;;3.43;;
61590;SDS011;71994;52.410;-1.966;2024-03-06T07:26:15;5.10;;;3.47;;
61590;SDS011;71994;52.410;-1.966;2024-03-06T07:29:28;4.65;;;3.25;;
61590;SDS011;71994;52.410;-1.966;2024-03-06T07:32:37;4.60;;;3.33;;
61590;SDS011;71994;52.410;-1.966;2024-03-06T07:35:51;4.35;;;3.25;;
61590;SDS011;71994;52.410;-1.966;2024-03-06T07:39:01;4.20;;;3.47;;
61590;SDS011;71994;52.410;-1.966;2024-03-06T07:42:10;5.03;;;3.25;;
61590;SDS011;71994;52.410;-1.966;2024-03-06T07:45:18;4.63;;;3.58;;
61590;SDS011;71994;52.410;-1.966;2024-03-06T07:48:24;11.80;;;3.50;;
61590;SDS011;71994;52.410;-1.966;2024-03-06T07:51:33;9.50;;;3.35;;
61590;SDS011;71994;52.410;-1.966;2024-03-06T07:54:40;8.25;;;3.22;;
61590;SDS011;71994;52.410;-1.966;2024-03-06T07:57:49;4.60;;;3.27;;
61590;SDS011;71994;52.410;-1.966;2024-03-06T08:00:55;4.75;;;3.00;;
61590;SDS011;71994;52.410;-1.966;2024-03-06T08:04:03;6.55;;;3.08;;
61590;SDS011;71994;52.410;-1.966;2024-03-06T08:07:12;4.10;;;3.00;;
61590;SDS011;71994;52.410;-1.966;2024-03-06T08:10:19;4.15;;;2.80;;
61590;SDS011;71994;52.410;-1.966;2024-03-06T08:13:25;4.55;;;2.83;;
61590;SDS011;71994;52.410;-1.966;2024-03-06T08:16:39;8.18;;;3.10;;
61590;SDS011;71994;52.410;-1.966;2024-03-06T08:19:45;3.88;;;2.90;;
61590;SDS011;71994;52.410;-1.966;2024-03-06T08:22:58;3.63;;;2.67;;
61590;SDS011;71994;52.410;-1.966;2024-03-06T08:26:04;3.20;;;2.38;;
61590;SDS011;71994;52.410;-1.966;2024-03-06T08:29:13;4.07;;;2.75;;
61590;SDS011;71994;52.410;-1.966;2024-03-06T08:32:19;4.93;;;2.40;;
61590;SDS011;71994;52.410;-1.966;2024-03-06T08:35:30;3.53;;;2.58;;
61590;SDS011;71994;52.410;-1.966;2024-03-06T08:38:40;4.22;;;2.80;;
61590;SDS011;71994;52.410;-1.966;2024-03-06T08:41:49;3.78;;;2.72;;
61590;SDS011;71994;52.410;-1.966;2024-03-06T08:44:55;3.75;;;2.35;;
61590;SDS011;71994;52.410;-1.966;2024-03-06T08:51:27;3.85;;;2.65;;
61590;SDS011;71994;52.410;-1.966;2024-03-06T08:54:40;3.95;;;2.80;;
61590;SDS011;71994;52.410;-1.966;2024-03-06T08:57:46;5.35;;;2.80;;
61590;SDS011;71994;52.410;-1.966;2024-03-06T09:00:55;4.75;;;3.22;;
61590;SDS011;71994;52.410;-1.966;2024-03-06T09:04:01;4.22;;;2.78;;
61590;SDS011;71994;52.410;-1.966;2024-03-06T09:07:10;5.55;;;2.88;;
61590;SDS011;71994;52.410;-1.966;2024-03-06T09:10:19;6.22;;;3.30;;
61590;SDS011;71994;52.410;-1.966;2024-03-06T09:13:28;4.03;;;3.22;;
61590;SDS011;71994;52.410;-1.966;2024-03-06T09:16:35;5.85;;;3.25;;
61590;SDS011;71994;52.410;-1.966;2024-03-06T09:19:45;5.70;;;3.58;;
61590;SDS011;71994;52.410;-1.966;2024-03-06T09:22:51;9.63;;;3.58;;
61590;SDS011;71994;52.410;-1.966;2024-03-06T09:26:05;7.80;;;3.38;;
61590;SDS011;71994;52.410;-1.966;2024-03-06T09:29:12;6.45;;;3.85;;
61590;SDS011;71994;52.410;-1.966;2024-03-06T09:32:20;6.25;;;4.00;;
61590;SDS011;71994;52.410;-1.966;2024-03-06T09:35:28;8.10;;;4.45;;
61590;SDS011;71994;52.410;-1.966;2024-03-06T09:38:35;5.82;;;4.18;;
61590;SDS011;71994;52.410;-1.966;2024-03-06T09:41:46;4.80;;;3.70;;
61590;SDS011;71994;52.410;-1.966;2024-03-06T09:44:52;6.63;;;4.40;;
61590;SDS011;71994;52.410;-1.966;2024-03-06T09:47:59;6.68;;;4.53;;
61590;SDS011;71994;52.410;-1.966;2024-03-06T09:51:05;7.20;;;4.60;;
61590;SDS011;71994;52.410;-1.966;2024-03-06T09:54:14;5.30;;;4.30;;
61590;SDS011;71994;52.410;-1.966;2024-03-06T09:57:23;7.20;;;4.60;;
61590;SDS011;71994;52.410;-1.966;2024-03-06T10:00:29;5.45;;;4.35;;
61590;SDS011;71994;52.410;-1.966;2024-03-06T10:03:37;6.03;;;4.47;;
61590;SDS011;71994;52.410;-1.966;2024-03-06T10:06:48;7.00;;;5.03;;
61590;SDS011;71994;52.410;-1.966;2024-03-06T10:09:55;7.20;;;4.63;;
61590;SDS011;71994;52.410;-1.966;2024-03-06T10:13:04;7.18;;;4.95;;
61590;SDS011;71994;52.410;-1.966;2024-03-06T10:16:10;7.83;;;4.77;;
61590;SDS011;71994;52.410;-1.966;2024-03-06T10:19:17;7.20;;;5.07;;
61590;SDS011;71994;52.410;-1.966;2024-03-06T10:22:24;7.72;;;5.18;;
61590;SDS011;71994;52.410;-1.966;2024-03-06T10:25:30;8.43;;;5.25;;
61590;SDS011;71994;52.410;-1.966;2024-03-06T10:28:44;7.47;;;5.07;;
61590;SDS011;71994;52.410;-1.966;2024-03-06T10:31:52;7.72;;;5.22;;
61590;SDS011;71994;52.410;-1.966;2024-03-06T10:35:03;6.15;;;4.55;;
61590;SDS011;71994;52.410;-1.966;2024-03-06T10:38:16;8.32;;;5.30;;
61590;SDS011;71994;52.410;-1.966;2024-03-06T10:41:24;7.25;;;5.13;;
61590;SDS011;71994;52.410;-1.966;2024-03-06T10:44:35;7.40;;;5.35;;
61590;SDS011;71994;52.410;-1.966;2024-03-06T10:47:45;7.40;;;5.55;;
61590;SDS011;71994;52.410;-1.966;2024-03-06T10:50:53;7.53;;;5.20;;
61590;SDS011;71994;52.410;-1.966;2024-03-06T10:54:05;7.18;;;5.53;;
61590;SDS011;71994;52.410;-1.966;2024-03-06T10:57:15;7.63;;;5.68;;
61590;SDS011;71994;52.410;-1.966;2024-03-06T11:00:25;7.93;;;5.68;;
61590;SDS011;71994;52.410;-1.966;2024-03-06T11:06:39;8.15;;;5.70;;
61590;SDS011;71994;52.410;-1.966;2024-03-06T11:09:47;8.85;;;5.88;;
61590;SDS011;71994;52.410;-1.966;2024-03-06T11:12:54;7.38;;;5.55;;
61590;SDS011;71994;52.410;-1.966;2024-03-06T11:16:04;8.15;;;6.03;;
61590;SDS011;71994;52.410;-1.966;2024-03-06T11:19:15;8.52;;;6.00;;
61590;SDS011;71994;52.410;-1.966;2024-03-06T11:26:01;7.07;;;5.77;;
61590;SDS011;71994;52.410;-1.966;2024-03-06T11:29:08;9.02;;;6.28;;
61590;SDS011;71994;52.410;-1.966;2024-03-06T11:32:17;8.48;;;6.25;;
61590;SDS011;71994;52.410;-1.966;2024-03-06T11:35:27;8.32;;;6.05;;
61590;SDS011;71994;52.410;-1.966;2024-03-06T11:38:37;9.38;;;6.57;;
61590;SDS011;71994;52.410;-1.966;2024-03-06T11:41:47;7.85;;;5.80;;
61590;SDS011;71994;52.410;-1.966;2024-03-06T11:44:56;9.93;;;6.72;;
61590;SDS011;71994;52.410;-1.966;2024-03-06T11:48:09;7.90;;;6.00;;
61590;SDS011;71994;52.410;-1.966;2024-03-06T11:51:25;12.70;;;7.00;;
61590;SDS011;71994;52.410;-1.966;2024-03-06T11:54:33;11.27;;;6.20;;
61590;SDS011;71994;52.410;-1.966;2024-03-06T11:57:42;9.63;;;6.93;;
61590;SDS011;71994;52.410;-1.966;2024-03-06T12:00:52;9.93;;;6.85;;
61590;SDS011;71994;52.410;-1.966;2024-03-06T12:04:03;10.68;;;7.50;;
61590;SDS011;71994;52.410;-1.966;2024-03-06T12:07:09;11.52;;;6.35;;
61590;SDS011;71994;52.410;-1.966;2024-03-06T12:10:16;8.25;;;6.43;;
61590;SDS011;71994;52.410;-1.966;2024-03-06T12:13:23;10.95;;;6.95;;
61590;SDS011;71994;52.410;-1.966;2024-03-06T12:16:30;10.95;;;6.88;;
61590;SDS011;71994;52.410;-1.966;2024-03-06T12:19:39;10.07;;;6.35;;
61590;SDS011;71994;52.410;-1.966;2024-03-06T12:22:48;11.55;;;6.95;;
61590;SDS011;71994;52.410;-1.966;2024-03-06T12:26:05;10.70;;;6.53;;
61590;SDS011;71994;52.410;-1.966;2024-03-06T12:29:16;11.05;;;6.60;;
61590;SDS011;71994;52.410;-1.966;2024-03-06T12:32:24;9.50;;;6.53;;
61590;SDS011;71994;52.410;-1.966;2024-03-06T12:35:38;9.57;;;6.68;;
61590;SDS011;71994;52.410;-1.966;2024-03-06T12:38:45;8.90;;;6.50;;
61590;SDS011;71994;52.410;-1.966;2024-03-06T12:42:02;8.80;;;5.97;;
61590;SDS011;71994;52.410;-1.966;2024-03-06T12:45:11;10.65;;;6.40;;
61590;SDS011;71994;52.410;-1.966;2024-03-06T12:48:18;11.10;;;6.00;;
61590;SDS011;71994;52.410;-1.966;2024-03-06T12:51:27;9.18;;;6.32;;
61590;SDS011;71994;52.410;-1.966;2024-03-06T12:54:35;8.77;;;6.00;;
61590;SDS011;71994;52.410;-1.966;2024-03-06T12:57:46;9.88;;;6.70;;
61590;SDS011;71994;52.410;-1.966;2024-03-06T13:00:53;10.98;;;6.20;;
61590;SDS011;71994;52.410;-1.966;2024-03-06T13:04:08;11.52;;;6.20;;
61590;SDS011;71994;52.410;-1.966;2024-03-06T13:07:18;8.00;;;5.60;;
61590;SDS011;71994;52.410;-1.966;2024-03-06T13:10:24;9.32;;;5.95;;
61590;SDS011;71994;52.410;-1.966;2024-03-06T13:13:31;8.80;;;5.80;;
61590;SDS011;71994;52.410;-1.966;2024-03-06T13:16:38;9.38;;;5.78;;
61590;SDS011;71994;52.410;-1.966;2024-03-06T13:19:45;8.38;;;5.82;;
61590;SDS011;71994;52.410;-1.966;2024-03-06T13:22:54;10.85;;;6.20;;
61590;SDS011;71994;52.410;-1.966;2024-03-06T13:26:02;9.35;;;5.65;;
61590;SDS011;71994;52.410;-1.966;2024-03-06T13:29:09;9.65;;;5.85;;
61590;SDS011;71994;52.410;-1.966;2024-03-06T13:35:32;10.30;;;6.07;;
61590;SDS011;71994;52.410;-1.966;2024-03-06T13:38:41;8.05;;;6.05;;
61590;SDS011;71994;52.410;-1.966;2024-03-06T13:41:48;9.00;;;6.03;;
61590;SDS011;71994;52.410;-1.966;2024-03-06T13:44:54;9.52;;;5.90;;
61590;SDS011;71994;52.410;-1.966;2024-03-06T13:48:13;8.95;;;6.05;;
61590;SDS011;71994;52.410;-1.966;2024-03-06T13:51:21;8.50;;;5.80;;
61590;SDS011;71994;52.410;-1.966;2024-03-06T13:54:42;8.75;;;6.03;;
61590;SDS011;71994;52.410;-1.966;2024-03-06T13:57:49;8.68;;;5.93;;
61590;SDS011;71994;52.410;-1.966;2024-03-06T14:00:58;9.30;;;5.80;;
61590;SDS011;71994;52.410;-1.966;2024-03-06T14:04:05;9.13;;;5.78;;
61590;SDS011;71994;52.410;-1.966;2024-03-06T14:07:11;9.48;;;5.43;;
61590;SDS011;71994;52.410;-1.966;2024-03-06T14:10:21;9.77;;;5.50;;
61590;SDS011;71994;52.410;-1.966;2024-03-06T14:13:29;7.53;;;5.20;;
61590;SDS011;71994;52.410;-1.966;2024-03-06T14:16:35;7.82;;;5.35;;
61590;SDS011;71994;52.410;-1.966;2024-03-06T14:19:45;9.80;;;5.45;;
61590;SDS011;71994;52.410;-1.966;2024-03-06T14:22:52;7.38;;;4.80;;
61590;SDS011;71994;52.410;-1.966;2024-03-06T14:26:02;7.93;;;5.82;;
61590;SDS011;71994;52.410;-1.966;2024-03-06T14:29:09;9.40;;;5.47;;
61590;SDS011;71994;52.410;-1.966;2024-03-06T14:32:17;7.38;;;5.00;;
61590;SDS011;71994;52.410;-1.966;2024-03-06T14:35:24;7.88;;;5.55;;
61590;SDS011;71994;52.410;-1.966;2024-03-06T14:38:36;7.75;;;5.22;;
61590;SDS011;71994;52.410;-1.966;2024-03-06T14:41:53;10.55;;;5.20;;
61590;SDS011;71994;52.410;-1.966;2024-03-06T14:45:03;6.85;;;5.00;;
61590;SDS011;71994;52.410;-1.966;2024-03-06T14:48:12;7.35;;;4.95;;
61590;SDS011;71994;52.410;-1.966;2024-03-06T14:51:21;8.30;;;4.88;;
61590;SDS011;71994;52.410;-1.966;2024-03-06T14:54:27;7.93;;;4.90;;
61590;SDS011;71994;52.410;-1.966;2024-03-06T14:57:37;7.18;;;5.13;;
61590;SDS011;71994;52.410;-1.966;2024-03-06T15:00:50;7.57;;;4.90;;
61590;SDS011;71994;52.410;-1.966;2024-03-06T15:03:57;7.10;;;4.88;;
61590;SDS011;71994;52.410;-1.966;2024-03-06T15:07:04;6.75;;;4.65;;
61590;SDS011;71994;52.410;-1.966;2024-03-06T15:10:13;8.00;;;4.85;;
61590;SDS011;71994;52.410;-1.966;2024-03-06T15:13:28;6.97;;;4.75;;
61590;SDS011;71994;52.410;-1.966;2024-03-06T15:16:37;6.95;;;4.53;;
61590;SDS011;71994;52.410;-1.966;2024-03-06T15:19:45;5.57;;;4.40;;
61590;SDS011;71994;52.410;-1.966;2024-03-06T15:22:53;7.05;;;4.40;;
61590;SDS011;71994;52.410;-1.966;2024-03-06T15:26:03;6.88;;;4.63;;
61590;SDS011;71994;52.410;-1.966;2024-03-06T15:29:13;6.30;;;4.40;;
61590;SDS011;71994;52.410;-1.966;2024-03-06T15:32:21;6.03;;;4.38;;
61590;SDS011;71994;52.410;-1.966;2024-03-06T15:35:30;6.80;;;4.47;;
61590;SDS011;71994;52.410;-1.966;2024-03-06T15:38:41;6.00;;;4.07;;
61590;SDS011;71994;52.410;-1.966;2024-03-06T15:41:53;5.60;;;4.07;;
61590;SDS011;71994;52.410;-1.966;2024-03-06T15:45:03;4.90;;;3.60;;
61590;SDS011;71994;52.410;-1.966;2024-03-06T15:48:11;6.22;;;4.30;;
61590;SDS011;71994;52.410;-1.966;2024-03-06T15:51:17;6.05;;;4.10;;
61590;SDS011;71994;52.410;-1.966;2024-03-06T15:54:24;5.50;;;3.80;;
61590;SDS011;71994;52.410;-1.966;2024-03-06T15:57:33;7.00;;;3.80;;
61590;SDS011;71994;52.410;-1.966;2024-03-06T16:00:43;6.93;;;3.88;;
61590;SDS011;71994;52.410;-1.966;2024-03-06T16:03:50;5.75;;;3.47;;
61590;SDS011;71994;52.410;-1.966;2024-03-06T16:06:57;6.63;;;3.60;;
61590;SDS011;71994;52.410;-1.966;2024-03-06T16:10:04;5.85;;;3.72;;
61590;SDS011;71994;52.410;-1.966;2024-03-06T16:13:14;5.07;;;3.90;;
61590;SDS011;71994;52.410;-1.966;2024-03-06T16:16:24;5.65;;;3.72;;
61590;SDS011;71994;52.410;-1.966;2024-03-06T16:19:32;6.80;;;4.30;;
61590;SDS011;71994;52.410;-1.966;2024-03-06T16:22:41;5.32;;;3.45;;
61590;SDS011;71994;52.410;-1.966;2024-03-06T16:25:48;4.45;;;3.30;;
61590;SDS011;71994;52.410;-1.966;2024-03-06T16:29:03;4.45;;;2.97;;
61590;SDS011;71994;52.410;-1.966;2024-03-06T16:32:12;4.43;;;3.10;;
61590;SDS011;71994;52.410;-1.966;2024-03-06T16:35:19;5.60;;;3.40;;
61590;SDS011;71994;52.410;-1.966;2024-03-06T16:38:28;5.05;;;2.85;;
61590;SDS011;71994;52.410;-1.966;2024-03-06T16:41:35;3.92;;;2.88;;
61590;SDS011;71994;52.410;-1.966;2024-03-06T16:44:43;4.82;;;2.90;;
61590;SDS011;71994;52.410;-1.966;2024-03-06T16:47:56;6.18;;;3.10;;
61590;SDS011;71994;52.410;-1.966;2024-03-06T16:51:04;4.70;;;2.88;;
61590;SDS011;71994;52.410;-1.966;2024-03-06T16:54:13;4.00;;;2.75;;
61590;SDS011;71994;52.410;-1.966;2024-03-06T16:57:20;3.60;;;2.45;;
61590;SDS011;71994;52.410;-1.966;2024-03-06T17:00:26;3.92;;;2.50;;
61590;SDS011;71994;52.410;-1.966;2024-03-06T17:03:36;4.72;;;2.50;;
61590;SDS011;71994;52.410;-1.966;2024-03-06T17:06:42;4.05;;;2.33;;
61590;SDS011;71994;52.410;-1.966;2024-03-06T17:09:49;4.18;;;2.60;;
61590;SDS011;71994;52.410;-1.966;2024-03-06T17:12:55;4.10;;;2.38;;
61590;SDS011;71994;52.410;-1.966;2024-03-06T17:16:03;3.17;;;2.22;;
61590;SDS011;71994;52.410;-1.966;2024-03-06T17:19:14;5.07;;;2.42;;
61590;SDS011;71994;52.410;-1.966;2024-03-06T17:22:21;4.50;;;2.42;;
61590;SDS011;71994;52.410;-1.966;2024-03-06T17:25:27;3.97;;;2.38;;
61590;SDS011;71994;52.410;-1.966;2024-03-06T17:28:34;4.25;;;2.40;;
61590;SDS011;71994;52.410;-1.966;2024-03-06T17:31:43;3.78;;;2.30;;
61590;SDS011;71994;52.410;-1.966;2024-03-06T17:34:55;4.53;;;2.50;;
61590;SDS011;71994;52.410;-1.966;2024-03-06T17:38:09;4.30;;;2.05;;
61590;SDS011;71994;52.410;-1.966;2024-03-06T17:41:17;3.60;;;2.15;;
61590;SDS011;71994;52.410;-1.966;2024-03-06T17:44:26;4.22;;;2.08;;
61590;SDS011;71994;52.410;-1.966;2024-03-06T17:47:35;3.28;;;2.15;;
61590;SDS011;71994;52.410;-1.966;2024-03-06T17:50:45;3.65;;;2.20;;
61590;SDS011;71994;52.410;-1.966;2024-03-06T17:53:52;4.82;;;2.30;;
61590;SDS011;71994;52.410;-1.966;2024-03-06T17:56:58;2.88;;;2.00;;
61590;SDS011;71994;52.410;-1.966;2024-03-06T18:00:05;2.95;;;2.15;;
61590;SDS011;71994;52.410;-1.966;2024-03-06T18:03:15;4.10;;;2.20;;
61590;SDS011;71994;52.410;-1.966;2024-03-06T18:06:31;5.22;;;2.20;;
61590;SDS011;71994;52.410;-1.966;2024-03-06T18:09:41;5.97;;;2.22;;
61590;SDS011;71994;52.410;-1.966;2024-03-06T18:12:50;3.53;;;2.22;;
61590;SDS011;71994;52.410;-1.966;2024-03-06T18:15:57;4.97;;;1.90;;
61590;SDS011;71994;52.410;-1.966;2024-03-06T18:19:07;3.80;;;2.13;;
61590;SDS011;71994;52.410;-1.966;2024-03-06T18:22:17;4.70;;;2.15;;
61590;SDS011;71994;52.410;-1.966;2024-03-06T18:25:25;3.53;;;2.08;;
61590;SDS011;71994;52.410;-1.966;2024-03-06T18:28:35;7.72;;;2.25;;
61590;SDS011;71994;52.410;-1.966;2024-03-06T18:31:41;4.75;;;1.98;;
61590;SDS011;71994;52.410;-1.966;2024-03-06T18:34:52;5.68;;;1.98;;
61590;SDS011;71994;52.410;-1.966;2024-03-06T18:38:03;5.03;;;2.58;;
61590;SDS011;71994;52.410;-1.966;2024-03-06T18:41:12;5.60;;;2.40;;
61590;SDS011;71994;52.410;-1.966;2024-03-06T18:44:24;4.60;;;2.65;;
61590;SDS011;71994;52.410;-1.966;2024-03-06T18:47:31;7.95;;;2.22;;
61590;SDS011;71994;52.410;-1.966;2024-03-06T18:50:38;3.67;;;2.30;;
61590;SDS011;71994;52.410;-1.966;2024-03-06T18:53:47;4.47;;;2.50;;